createdAt,value
2018-09-11T00:01:26.167Z,16.90
2018-09-11T00:03:54.736Z,17.00
2018-09-11T00:06:23.292Z,17.10
2018-09-11T00:08:51.863Z,17.00
2018-09-11T00:11:20.437Z,17.00
2018-09-11T00:13:48.966Z,16.90
2018-09-11T00:16:17.503Z,16.80
2018-09-11T00:18:46.044Z,16.80
2018-09-11T00:21:14.667Z,16.90
2018-09-11T00:23:43.270Z,16.90
2018-09-11T00:26:11.884Z,17.00
2018-09-11T00:28:40.426Z,17.00
2018-09-11T00:31:08.988Z,16.90
2018-09-11T00:33:37.536Z,16.80
2018-09-11T00:36:06.116Z,16.80
2018-09-11T00:38:34.668Z,16.80
2018-09-11T00:41:03.219Z,16.80
2018-09-11T00:43:31.786Z,16.70
2018-09-11T00:46:00.389Z,16.70
2018-09-11T00:48:28.948Z,16.70
2018-09-11T00:50:57.500Z,16.70
2018-09-11T00:53:26.041Z,16.60
2018-09-11T00:55:54.575Z,16.50
2018-09-11T00:58:23.224Z,16.60
2018-09-11T01:00:51.825Z,16.60
2018-09-11T01:03:20.373Z,16.60
2018-09-11T01:05:49.003Z,16.60
2018-09-11T01:08:17.554Z,16.50
2018-09-11T01:10:46.116Z,16.50
2018-09-11T01:13:14.666Z,16.60
2018-09-11T01:15:43.223Z,16.60
2018-09-11T01:18:11.797Z,16.50
2018-09-11T01:20:40.325Z,16.50
2018-09-11T01:23:08.842Z,16.40
2018-09-11T01:25:37.414Z,16.40
2018-09-11T01:28:05.964Z,16.40
2018-09-11T01:30:34.501Z,16.40
2018-09-11T01:33:03.026Z,16.40
2018-09-11T01:35:31.531Z,16.40
2018-09-11T01:38:00.058Z,16.40
2018-09-11T01:40:28.648Z,16.40
2018-09-11T01:42:57.208Z,16.40
2018-09-11T01:45:25.833Z,16.50
2018-09-11T01:47:54.380Z,16.50
2018-09-11T01:50:22.915Z,16.50
2018-09-11T01:52:51.465Z,16.40
2018-09-11T01:55:20.013Z,16.30
2018-09-11T01:57:48.520Z,16.30
2018-09-11T02:00:18.775Z,16.20
2018-09-11T02:02:47.804Z,16.10
2018-09-11T02:05:16.701Z,16.10
2018-09-11T02:07:45.216Z,16.10
2018-09-11T02:10:14.096Z,16.20
2018-09-11T02:12:42.616Z,16.10
2018-09-11T02:15:11.833Z,16.10
2018-09-11T02:17:41.018Z,16.20
2018-09-11T02:20:09.678Z,16.20
2018-09-11T02:22:38.200Z,16.20
2018-09-11T02:25:06.803Z,16.10
2018-09-11T02:27:35.394Z,16.10
2018-09-11T02:30:04.036Z,16.10
2018-09-11T02:32:32.525Z,16.10
2018-09-11T02:35:01.062Z,16.10
2018-09-11T02:37:29.632Z,16.10
2018-09-11T02:39:58.162Z,16.00
2018-09-11T02:42:26.695Z,15.90
2018-09-11T02:44:55.225Z,16.00
2018-09-11T02:47:23.742Z,16.00
2018-09-11T02:49:52.255Z,16.00
2018-09-11T02:52:20.781Z,16.10
2018-09-11T02:54:49.372Z,16.00
2018-09-11T02:57:17.908Z,15.90
2018-09-11T02:59:46.438Z,15.90
2018-09-11T03:02:14.936Z,15.90
2018-09-11T03:04:43.465Z,15.90
2018-09-11T03:07:12.008Z,15.90
2018-09-11T03:09:40.576Z,15.80
2018-09-11T03:12:09.136Z,15.80
2018-09-11T03:14:37.690Z,15.70
2018-09-11T03:17:06.186Z,15.80
2018-09-11T03:19:34.728Z,15.80
2018-09-11T03:22:03.244Z,15.90
2018-09-11T03:24:31.797Z,15.80
2018-09-11T03:27:00.334Z,15.80
2018-09-11T03:29:28.859Z,15.70
2018-09-11T03:31:57.393Z,15.70
2018-09-11T03:34:25.917Z,15.70
2018-09-11T03:36:54.460Z,15.80
2018-09-11T03:39:23.003Z,15.90
2018-09-11T03:41:51.492Z,15.90
2018-09-11T03:44:20.100Z,16.00
2018-09-11T03:46:48.565Z,16.00
2018-09-11T03:49:17.105Z,16.10
2018-09-11T03:51:45.647Z,16.20
2018-09-11T03:54:14.218Z,16.50
2018-09-11T03:56:42.737Z,16.50
2018-09-11T03:59:11.352Z,16.50
2018-09-11T04:01:39.822Z,16.40
2018-09-11T04:04:08.377Z,16.20
2018-09-11T04:06:36.921Z,16.00
2018-09-11T04:09:08.987Z,16.00
2018-09-11T04:11:37.593Z,15.90
2018-09-11T04:14:06.101Z,15.90
2018-09-11T04:16:34.632Z,15.80
2018-09-11T04:19:03.176Z,15.70
2018-09-11T04:21:31.775Z,15.60
2018-09-11T04:24:00.306Z,15.60
2018-09-11T04:26:28.900Z,15.60
2018-09-11T04:28:57.462Z,15.60
2018-09-11T04:31:26.070Z,15.60
2018-09-11T04:33:54.686Z,15.60
2018-09-11T04:36:23.315Z,15.50
2018-09-11T04:38:51.743Z,15.50
2018-09-11T04:41:20.357Z,15.40
2018-09-11T04:43:49.264Z,15.30
2018-09-11T04:46:17.786Z,15.30
2018-09-11T04:48:46.901Z,15.30
2018-09-11T04:51:15.886Z,15.30
2018-09-11T04:53:44.439Z,15.20
2018-09-11T04:56:12.987Z,15.30
2018-09-11T04:58:41.550Z,15.20
2018-09-11T05:01:10.095Z,15.20
2018-09-11T05:03:38.618Z,15.20
2018-09-11T05:06:07.366Z,15.10
2018-09-11T05:08:35.924Z,15.20
2018-09-11T05:11:04.554Z,15.10
2018-09-11T05:13:33.107Z,15.00
2018-09-11T05:16:01.622Z,14.90
2018-09-11T05:18:30.251Z,14.90
2018-09-11T05:20:58.870Z,14.90
2018-09-11T05:23:27.397Z,14.90
2018-09-11T05:25:55.979Z,15.00
2018-09-11T05:28:24.545Z,15.10
2018-09-11T05:30:53.066Z,15.20
2018-09-11T05:33:21.561Z,15.40
2018-09-11T05:35:50.141Z,15.40
2018-09-11T05:38:18.676Z,15.50
2018-09-11T05:40:47.199Z,15.60
2018-09-11T05:43:15.759Z,15.60
2018-09-11T05:45:44.333Z,15.60
2018-09-11T05:48:12.877Z,15.50
2018-09-11T05:50:41.407Z,15.50
2018-09-11T05:53:09.939Z,15.40
2018-09-11T05:55:38.515Z,15.40
2018-09-11T05:58:07.032Z,15.40
2018-09-11T06:00:35.588Z,15.40
2018-09-11T06:03:04.139Z,15.40
2018-09-11T06:05:32.765Z,15.50
2018-09-11T06:08:01.240Z,15.70
2018-09-11T06:10:29.774Z,16.00
2018-09-11T06:12:58.320Z,16.20
2018-09-11T06:15:26.863Z,16.40
2018-09-11T06:17:55.407Z,16.70
2018-09-11T06:20:23.926Z,16.90
2018-09-11T06:22:52.473Z,17.00
2018-09-11T06:25:21.043Z,17.20
2018-09-11T06:27:49.595Z,17.30
2018-09-11T06:30:18.130Z,17.40
2018-09-11T06:32:46.658Z,17.60
2018-09-11T06:35:15.192Z,17.80
2018-09-11T06:37:43.699Z,17.90
2018-09-11T06:40:12.280Z,18.10
2018-09-11T06:42:40.782Z,18.10
2018-09-11T06:45:09.360Z,18.30
2018-09-11T06:47:37.912Z,18.50
2018-09-11T06:50:06.558Z,18.60
2018-09-11T06:52:35.093Z,18.80
2018-09-11T06:55:03.705Z,18.90
2018-09-11T06:57:32.406Z,19.00
2018-09-11T07:00:00.940Z,19.10
2018-09-11T07:02:29.474Z,19.20
2018-09-11T07:04:58.011Z,19.30
2018-09-11T07:07:26.613Z,19.40
2018-09-11T07:09:55.173Z,19.50
2018-09-11T07:12:23.743Z,19.70
2018-09-11T07:14:52.295Z,19.90
2018-09-11T07:17:20.887Z,20.00
2018-09-11T07:19:49.486Z,20.10
2018-09-11T07:22:18.401Z,20.20
2018-09-11T07:24:46.943Z,20.30
2018-09-11T07:27:15.451Z,20.40
2018-09-11T07:29:44.027Z,20.50
2018-09-11T07:32:12.634Z,20.70
2018-09-11T07:34:41.183Z,20.80
2018-09-11T07:37:09.744Z,20.80
2018-09-11T07:39:38.296Z,20.90
2018-09-11T07:42:06.842Z,21.00
2018-09-11T07:44:35.383Z,21.10
2018-09-11T07:47:03.970Z,21.20
2018-09-11T07:49:32.518Z,21.30
2018-09-11T07:52:01.054Z,21.40
2018-09-11T07:54:29.573Z,21.50
2018-09-11T07:56:58.134Z,21.50
2018-09-11T07:59:26.688Z,21.60
2018-09-11T08:01:55.216Z,21.70
2018-09-11T08:04:23.731Z,21.80
2018-09-11T08:06:52.281Z,21.90
2018-09-11T08:09:20.836Z,22.00
2018-09-11T08:11:49.376Z,22.20
2018-09-11T08:14:17.893Z,22.20
2018-09-11T08:16:46.476Z,22.30
2018-09-11T08:19:15.043Z,22.40
2018-09-11T08:21:43.566Z,22.50
2018-09-11T08:24:12.142Z,22.80
2018-09-11T08:26:40.708Z,22.90
2018-09-11T08:29:09.280Z,23.10
2018-09-11T08:31:37.841Z,23.00
2018-09-11T08:34:06.376Z,23.10
2018-09-11T08:36:34.935Z,23.30
2018-09-11T08:39:04.595Z,23.30
2018-09-11T08:41:33.125Z,23.60
2018-09-11T08:44:01.662Z,23.70
2018-09-11T08:46:30.208Z,23.70
2018-09-11T08:48:58.772Z,23.80
2018-09-11T08:51:27.303Z,23.80
2018-09-11T08:53:55.856Z,23.80
2018-09-11T08:56:24.419Z,24.00
2018-09-11T08:58:52.946Z,24.00
2018-09-11T09:01:21.516Z,24.00
2018-09-11T09:03:50.057Z,24.10
2018-09-11T09:06:18.612Z,24.10
2018-09-11T09:08:47.159Z,24.10
2018-09-11T09:11:15.692Z,24.20
2018-09-11T09:13:44.212Z,24.30
2018-09-11T09:16:12.732Z,24.40
2018-09-11T09:18:41.296Z,24.40
2018-09-11T09:21:09.778Z,24.40
2018-09-11T09:23:38.321Z,24.50
2018-09-11T09:26:06.880Z,24.40
2018-09-11T09:28:35.386Z,24.40
2018-09-11T09:31:03.929Z,24.30
2018-09-11T09:33:32.471Z,24.40
2018-09-11T09:36:00.996Z,24.40
2018-09-11T09:38:29.556Z,24.30
2018-09-11T09:40:58.119Z,24.20
2018-09-11T09:43:26.683Z,24.30
2018-09-11T09:45:55.215Z,24.10
2018-09-11T09:48:23.796Z,24.20
2018-09-11T09:50:52.450Z,24.10
2018-09-11T09:53:20.881Z,24.10
2018-09-11T09:55:49.449Z,24.10
2018-09-11T09:58:17.963Z,24.00
2018-09-11T10:00:51.888Z,23.90
2018-09-11T10:03:20.421Z,23.90
2018-09-11T10:05:48.979Z,24.10
2018-09-11T10:08:17.581Z,24.00
2018-09-11T10:10:46.175Z,24.20
2018-09-11T10:13:14.703Z,24.20
2018-09-11T10:15:43.285Z,24.20
2018-09-11T10:18:11.787Z,24.30
2018-09-11T10:20:40.335Z,24.40
2018-09-11T10:23:08.889Z,24.50
2018-09-11T10:25:37.439Z,24.60
2018-09-11T10:28:05.965Z,24.60
2018-09-11T10:30:34.559Z,24.60
2018-09-11T10:33:03.118Z,24.60
2018-09-11T10:35:31.639Z,24.80
2018-09-11T10:38:00.217Z,25.00
2018-09-11T10:40:28.723Z,25.10
2018-09-11T10:42:57.243Z,25.10
2018-09-11T10:45:25.765Z,25.00
2018-09-11T10:47:54.306Z,25.00
2018-09-11T10:50:22.841Z,25.10
2018-09-11T10:52:51.418Z,25.20
2018-09-11T10:55:19.988Z,25.30
2018-09-11T10:57:48.495Z,25.40
2018-09-11T11:00:17.093Z,25.50
2018-09-11T11:02:45.650Z,25.50
2018-09-11T11:05:14.262Z,25.40
2018-09-11T11:07:42.776Z,25.40
2018-09-11T11:10:11.297Z,25.50
2018-09-11T11:12:39.879Z,25.50
2018-09-11T11:15:08.482Z,25.60
2018-09-11T11:17:37.031Z,25.50
2018-09-11T11:20:05.939Z,25.60
2018-09-11T11:22:34.452Z,25.60
2018-09-11T11:25:03.033Z,25.70
2018-09-11T11:27:31.581Z,25.80
2018-09-11T11:30:00.112Z,25.90
2018-09-11T11:32:28.624Z,25.80
2018-09-11T11:34:57.158Z,25.80
2018-09-11T11:37:25.846Z,25.90
2018-09-11T11:39:54.279Z,25.90
2018-09-11T11:42:22.917Z,26.00
2018-09-11T11:44:51.392Z,25.90
2018-09-11T11:47:20.768Z,25.80
2018-09-11T11:49:50.357Z,25.80
2018-09-11T11:52:19.327Z,25.90
2018-09-11T11:54:48.190Z,25.80
2018-09-11T11:57:16.718Z,25.70
2018-09-11T11:59:45.265Z,25.80
2018-09-11T12:02:13.850Z,25.80
2018-09-11T12:04:42.439Z,25.90
2018-09-11T12:07:10.991Z,26.00
2018-09-11T12:09:39.536Z,26.00
2018-09-11T12:12:08.091Z,26.00
2018-09-11T12:14:36.613Z,26.00
2018-09-11T12:17:05.489Z,26.20
2018-09-11T12:19:33.971Z,26.20
2018-09-11T12:22:02.508Z,26.40
2018-09-11T12:24:31.078Z,26.70
2018-09-11T12:26:59.574Z,26.90
2018-09-11T12:29:28.104Z,27.10
2018-09-11T12:31:56.616Z,27.20
2018-09-11T12:34:25.138Z,27.30
2018-09-11T12:36:53.722Z,27.30
2018-09-11T12:39:22.218Z,27.50
2018-09-11T12:41:50.736Z,27.50
2018-09-11T12:44:19.267Z,27.60
2018-09-11T12:46:47.936Z,27.70
2018-09-11T12:49:16.323Z,27.80
2018-09-11T12:51:44.843Z,28.00
2018-09-11T12:54:13.683Z,28.10
2018-09-11T12:56:42.233Z,28.10
2018-09-11T12:59:10.840Z,27.90
2018-09-11T13:01:39.369Z,27.70
2018-09-11T13:04:08.062Z,27.60
2018-09-11T13:06:36.702Z,27.50
2018-09-11T13:09:06.840Z,27.50
2018-09-11T13:11:35.331Z,27.50
2018-09-11T13:14:03.949Z,27.40
2018-09-11T13:16:32.532Z,27.60
2018-09-11T13:19:01.056Z,27.80
2018-09-11T13:21:29.639Z,27.90
2018-09-11T13:23:58.234Z,28.20
2018-09-11T13:26:26.811Z,28.40
2018-09-11T13:28:55.361Z,28.40
2018-09-11T13:31:23.893Z,28.50
2018-09-11T13:33:52.528Z,28.60
2018-09-11T13:36:21.041Z,28.50
2018-09-11T13:38:49.536Z,28.60
2018-09-11T13:41:18.067Z,28.80
2018-09-11T13:43:46.601Z,28.60
2018-09-11T13:46:15.179Z,28.60
2018-09-11T13:48:43.696Z,28.70
2018-09-11T13:51:12.264Z,28.70
2018-09-11T13:53:40.784Z,29.00
2018-09-11T13:56:09.398Z,28.90
2018-09-11T13:58:37.940Z,29.00
2018-09-11T14:01:07.034Z,28.90
2018-09-11T14:03:35.636Z,29.00
2018-09-11T14:06:04.212Z,29.00
2018-09-11T14:08:32.796Z,29.00
2018-09-11T14:11:01.338Z,29.00
2018-09-11T14:13:29.918Z,29.10
2018-09-11T14:15:58.446Z,29.10
2018-09-11T14:18:26.983Z,29.20
2018-09-11T14:20:55.496Z,29.30
2018-09-11T14:23:24.049Z,29.60
2018-09-11T14:25:52.640Z,29.80
2018-09-11T14:28:21.155Z,30.10
2018-09-11T14:30:49.638Z,30.50
2018-09-11T14:33:18.246Z,31.00
2018-09-11T14:35:46.794Z,31.30
2018-09-11T14:38:15.315Z,31.60
2018-09-11T14:40:43.851Z,31.80
2018-09-11T14:43:12.479Z,32.00
2018-09-11T14:45:40.996Z,31.60
2018-09-11T14:48:10.469Z,31.50
2018-09-11T14:50:39.073Z,31.60
2018-09-11T14:53:07.641Z,31.60
2018-09-11T14:55:36.193Z,31.50
2018-09-11T14:58:04.722Z,31.40
2018-09-11T15:00:33.283Z,31.30
2018-09-11T15:03:01.866Z,31.30
2018-09-11T15:05:30.382Z,31.30
2018-09-11T15:07:59.043Z,31.10
2018-09-11T15:10:27.530Z,31.00
2018-09-11T15:12:56.071Z,31.00
2018-09-11T15:15:24.701Z,31.00
2018-09-11T15:17:53.248Z,31.20
2018-09-11T15:20:21.759Z,31.30
2018-09-11T15:22:50.316Z,31.40
2018-09-11T15:25:18.906Z,31.40
2018-09-11T15:27:47.419Z,31.50
2018-09-11T15:30:15.977Z,31.60
2018-09-11T15:32:44.519Z,31.30
2018-09-11T15:35:13.078Z,31.10
2018-09-11T15:37:41.621Z,30.50
2018-09-11T15:40:10.226Z,29.90
2018-09-11T15:42:38.791Z,29.50
2018-09-11T15:45:07.342Z,29.10
2018-09-11T15:47:35.878Z,28.80
2018-09-11T15:50:04.500Z,28.60
2018-09-11T15:52:33.068Z,28.30
2018-09-11T15:55:01.588Z,28.00
2018-09-11T15:57:30.143Z,27.80
2018-09-11T15:59:58.669Z,27.60
2018-09-11T16:02:27.210Z,27.30
2018-09-11T16:04:55.725Z,27.10
2018-09-11T16:07:24.247Z,26.90
2018-09-11T16:09:52.802Z,26.80
2018-09-11T16:12:21.440Z,26.50
2018-09-11T16:14:50.111Z,26.30
2018-09-11T16:17:19.257Z,26.00
2018-09-11T16:19:47.854Z,25.90
2018-09-11T16:22:16.386Z,25.70
2018-09-11T16:24:44.935Z,25.50
2018-09-11T16:27:13.542Z,25.40
2018-09-11T16:29:42.088Z,25.40
2018-09-11T16:32:10.638Z,25.30
2018-09-11T16:34:39.192Z,25.30
2018-09-11T16:37:07.720Z,25.20
2018-09-11T16:39:36.279Z,25.10
2018-09-11T16:42:04.805Z,25.00
2018-09-11T16:44:33.301Z,24.80
2018-09-11T16:47:01.928Z,24.60
2018-09-11T16:49:30.505Z,24.40
2018-09-11T16:51:58.988Z,24.30
2018-09-11T16:54:27.511Z,24.20
2018-09-11T16:56:56.070Z,24.20
2018-09-11T16:59:24.616Z,24.20
2018-09-11T17:01:53.253Z,24.00
2018-09-11T17:04:21.786Z,24.00
2018-09-11T17:06:50.303Z,23.90
2018-09-11T17:09:18.873Z,23.90
2018-09-11T17:11:47.442Z,23.90
2018-09-11T17:14:16.027Z,24.00
2018-09-11T17:16:44.624Z,24.00
2018-09-11T17:19:13.190Z,24.00
2018-09-11T17:21:41.690Z,23.90
2018-09-11T17:24:10.264Z,23.90
2018-09-11T17:26:38.791Z,23.80
2018-09-11T17:29:07.328Z,23.80
2018-09-11T17:31:35.894Z,23.80
2018-09-11T17:34:04.466Z,23.70
2018-09-11T17:36:32.984Z,23.70
2018-09-11T17:39:01.577Z,23.70
2018-09-11T17:41:30.069Z,23.60
2018-09-11T17:43:58.637Z,23.50
2018-09-11T17:46:27.190Z,23.40
2018-09-11T17:48:55.756Z,23.20
2018-09-11T17:51:24.291Z,23.00
2018-09-11T17:53:52.826Z,23.00
2018-09-11T17:56:21.357Z,22.80
2018-09-11T17:58:50.060Z,22.60
2018-09-11T18:01:18.651Z,22.50
2018-09-11T18:03:47.230Z,22.30
2018-09-11T18:06:15.759Z,22.30
2018-09-11T18:08:44.466Z,22.30
2018-09-11T18:11:12.891Z,22.30
2018-09-11T18:13:41.451Z,22.20
2018-09-11T18:16:10.001Z,22.00
2018-09-11T18:18:38.579Z,21.90
2018-09-11T18:21:07.197Z,21.90
2018-09-11T18:23:35.858Z,21.90
2018-09-11T18:26:04.465Z,21.90
2018-09-11T18:28:32.961Z,21.90
2018-09-11T18:31:01.490Z,21.80
2018-09-11T18:33:30.001Z,21.80
2018-09-11T18:35:58.524Z,21.80
2018-09-11T18:38:27.065Z,21.80
2018-09-11T18:40:55.640Z,21.80
2018-09-11T18:43:24.190Z,21.80
2018-09-11T18:45:52.717Z,21.80
2018-09-11T18:48:21.282Z,21.80
2018-09-11T18:50:49.878Z,21.80
2018-09-11T18:53:18.427Z,21.80
2018-09-11T18:55:46.980Z,21.70
2018-09-11T18:58:15.516Z,21.60
2018-09-11T19:00:44.153Z,21.70
2018-09-11T19:03:12.729Z,21.60
2018-09-11T19:05:41.309Z,21.60
2018-09-11T19:08:09.896Z,21.40
2018-09-11T19:10:38.514Z,21.30
2018-09-11T19:13:07.131Z,21.20
2018-09-11T19:15:35.857Z,21.10
2018-09-11T19:18:04.475Z,21.10
2018-09-11T19:20:33.080Z,21.30
2018-09-11T19:23:01.649Z,21.40
2018-09-11T19:25:30.189Z,21.40
2018-09-11T19:27:58.749Z,21.40
2018-09-11T19:30:27.273Z,21.30
2018-09-11T19:32:55.885Z,21.20
2018-09-11T19:35:24.381Z,21.00
2018-09-11T19:37:52.908Z,20.90
2018-09-11T19:40:21.544Z,20.80
2018-09-11T19:42:50.104Z,20.80
2018-09-11T19:45:18.696Z,20.70
2018-09-11T19:47:47.316Z,20.60
2018-09-11T19:50:15.982Z,20.50
2018-09-11T19:52:44.436Z,20.40
2018-09-11T19:55:13.007Z,20.30
2018-09-11T19:57:41.607Z,20.30
2018-09-11T20:00:10.236Z,20.20
2018-09-11T20:02:38.775Z,20.20
2018-09-11T20:05:07.437Z,20.20
2018-09-11T20:07:36.015Z,20.30
2018-09-11T20:10:04.674Z,20.30
2018-09-11T20:12:33.216Z,20.40
2018-09-11T20:15:01.805Z,20.40
2018-09-11T20:17:30.349Z,20.40
2018-09-11T20:19:58.909Z,20.30
2018-09-11T20:22:27.486Z,20.20
2018-09-11T20:24:56.030Z,20.10
2018-09-11T20:27:24.600Z,20.10
2018-09-11T20:29:53.175Z,20.10
2018-09-11T20:32:21.885Z,20.20
2018-09-11T20:34:50.668Z,20.20
2018-09-11T20:37:19.416Z,20.10
2018-09-11T20:39:47.919Z,20.00
2018-09-11T20:42:16.550Z,20.00
2018-09-11T20:44:45.321Z,19.90
2018-09-11T20:47:13.909Z,19.90
2018-09-11T20:49:42.469Z,19.90
2018-09-11T20:52:11.028Z,19.80
2018-09-11T20:54:39.609Z,19.70
2018-09-11T20:57:08.143Z,19.60
2018-09-11T20:59:36.758Z,19.40
2018-09-11T21:02:05.367Z,19.30
2018-09-11T21:04:33.917Z,19.30
2018-09-11T21:07:02.463Z,19.30
2018-09-11T21:09:31.069Z,19.30
2018-09-11T21:11:59.587Z,19.40
2018-09-11T21:14:28.130Z,19.40
2018-09-11T21:16:56.648Z,19.30
2018-09-11T21:19:25.244Z,19.20
2018-09-11T21:21:53.818Z,19.10
2018-09-11T21:24:22.336Z,19.20
2018-09-11T21:26:50.866Z,19.10
2018-09-11T21:29:19.431Z,19.10
2018-09-11T21:31:48.016Z,19.20
2018-09-11T21:34:16.533Z,19.20
2018-09-11T21:36:45.060Z,19.30
2018-09-11T21:39:13.613Z,19.30
2018-09-11T21:41:42.200Z,19.20
2018-09-11T21:44:10.764Z,19.10
2018-09-11T21:46:39.345Z,19.10
2018-09-11T21:49:07.860Z,19.00
2018-09-11T21:51:36.425Z,19.00
2018-09-11T21:54:04.997Z,19.00
2018-09-11T21:56:33.528Z,18.90
2018-09-11T21:59:02.059Z,18.90
2018-09-11T22:01:51.071Z,18.80
2018-09-11T22:04:20.234Z,18.80
2018-09-11T22:06:48.808Z,18.90
2018-09-11T22:09:17.344Z,18.90
2018-09-11T22:11:45.924Z,18.90
2018-09-11T22:14:14.483Z,18.80
2018-09-11T22:16:43.000Z,18.80
2018-09-11T22:19:11.611Z,18.70
2018-09-11T22:21:40.120Z,18.70
2018-09-11T22:24:08.636Z,18.60
2018-09-11T22:26:37.188Z,18.60
2018-09-11T22:29:05.761Z,18.60
2018-09-11T22:31:34.320Z,18.70
2018-09-11T22:34:02.916Z,18.60
2018-09-11T22:36:31.448Z,18.60
2018-09-11T22:38:59.992Z,18.40
2018-09-11T22:41:28.522Z,18.30
2018-09-11T22:43:57.118Z,18.30
2018-09-11T22:46:26.156Z,18.30
2018-09-11T22:48:54.720Z,18.40
2018-09-11T22:51:23.308Z,18.40
2018-09-11T22:53:51.844Z,18.50
2018-09-11T22:56:20.423Z,18.50
2018-09-11T22:58:48.952Z,18.60
2018-09-11T23:01:17.509Z,18.60
2018-09-11T23:03:46.175Z,18.50
2018-09-11T23:06:14.696Z,18.50
2018-09-11T23:08:43.224Z,18.40
2018-09-11T23:11:11.765Z,18.30
2018-09-11T23:13:40.255Z,18.30
2018-09-11T23:16:08.770Z,18.20
2018-09-11T23:18:37.313Z,18.20
2018-09-11T23:21:06.045Z,18.20
2018-09-11T23:23:34.601Z,18.10
2018-09-11T23:26:03.147Z,18.20
2018-09-11T23:28:31.677Z,18.20
2018-09-11T23:31:00.241Z,18.10
2018-09-11T23:33:28.790Z,18.00
2018-09-11T23:35:57.331Z,17.90
2018-09-11T23:38:25.883Z,17.80
2018-09-11T23:40:54.445Z,17.90
2018-09-11T23:43:23.005Z,17.80
2018-09-11T23:45:51.518Z,17.80
2018-09-11T23:48:20.188Z,17.80
2018-09-11T23:50:48.737Z,17.80
2018-09-11T23:53:17.276Z,17.80
2018-09-11T23:55:45.850Z,17.80
2018-09-11T23:58:14.394Z,17.80
